Time;durP1;ratioP1;P1;durP2;ratioP2;P2;SDS_P1;SDS_P2;PMS_P1;PMS_P2;Temp;Humidity;BMP_temperature;BMP_pressure;BME280_temperature;BME280_humidity;BME280_pressure;Samples;Min_cycle;Max_cycle;Signal;HPM_P1;HPM_P2
2022/09/20 00:00:45;;;;;;;4.63;2.40;;;;;;;16.79;45.83;99592.06;5059295;28;20040;-76
2022/09/20 00:03:14;;;;;;;5.70;2.45;;;;;;;16.81;46.05;99594.59;5094426;28;20039;-76
2022/09/20 00:05:43;;;;;;;7.65;2.17;;;;;;;16.64;46.54;99583.66;5059619;28;20157;-75
2022/09/20 00:08:13;;;;;;;5.53;2.55;;;;;;;16.72;46.33;99599.91;5093719;28;20543;-76
2022/09/20 00:10:39;;;;;;;5.15;2.38;;;;;;;16.70;46.50;99593.84;5059186;28;20078;-76
2022/09/20 00:13:06;;;;;;;3.83;2.47;;;;;;;16.71;46.08;99595.50;5092584;28;20052;-76
2022/09/20 00:15:33;;;;;;;3.60;2.03;;;;;;;16.69;46.34;99599.38;5059211;28;20043;-76
2022/09/20 00:17:59;;;;;;;9.65;2.17;;;;;;;16.63;46.11;99603.56;5075554;28;20545;-76
2022/09/20 00:20:25;;;;;;;6.30;2.30;;;;;;;16.61;46.24;99594.75;5092403;28;20108;-78
2022/09/20 00:22:52;;;;;;;8.00;2.72;;;;;;;16.61;46.26;99591.19;5092514;28;20044;-76
2022/09/20 00:25:19;;;;;;;5.15;2.58;;;;;;;16.51;46.62;99591.28;5075560;28;20147;-76
2022/09/20 00:27:45;;;;;;;4.40;2.15;;;;;;;16.47;46.50;99590.75;5092362;28;20044;-77
2022/09/20 00:30:12;;;;;;;4.03;2.13;;;;;;;16.45;46.65;99594.59;5075519;28;20044;-76
2022/09/20 00:32:39;;;;;;;6.78;2.05;;;;;;;16.35;46.38;99585.72;5092252;28;20406;-76
2022/09/20 00:35:06;;;;;;;6.38;2.30;;;;;;;16.37;46.30;99591.84;5075346;28;20050;-77
2022/09/20 00:37:33;;;;;;;3.25;2.10;;;;;;;16.35;46.49;99588.44;5075268;28;20036;-75
2022/09/20 00:40:00;;;;;;;2.50;2.05;;;;;;;16.20;46.53;99580.88;5092243;28;20135;-76
2022/09/20 00:42:28;;;;;;;7.90;2.13;;;;;;;16.20;46.60;99590.81;5058694;28;20051;-76
2022/09/20 00:45:02;;;;;;;8.55;2.40;;;;;;;16.25;46.56;99594.75;5075313;28;20130;-76
2022/09/20 00:47:29;;;;;;;5.10;2.15;;;;;;;16.26;46.48;99591.06;5075368;28;20052;-77
2022/09/20 00:50:06;;;;;;;10.55;2.15;;;;;;;16.24;46.59;99598.44;5092087;28;20433;-76
2022/09/20 00:52:34;;;;;;;6.47;2.20;;;;;;;16.26;46.35;99587.50;5075184;28;20044;-76
2022/09/20 00:55:05;;;;;;;8.57;2.10;;;;;;;16.17;46.07;99572.22;5074869;28;20052;-77
2022/09/20 00:57:34;;;;;;;8.57;2.25;;;;;;;16.14;46.18;99564.47;5075541;28;20044;-76
2022/09/20 01:00:03;;;;;;;6.25;2.40;;;;;;;16.20;46.59;99570.06;5093196;28;20048;-77
2022/09/20 01:02:32;;;;;;;3.75;2.13;;;;;;;16.21;46.31;99571.78;5074888;28;20051;-76
2022/09/20 01:04:59;;;;;;;3.53;2.33;;;;;;;16.20;46.54;99575.47;5075493;28;20050;-77
2022/09/20 01:07:25;;;;;;;9.45;2.42;;;;;;;16.18;46.53;99565.84;5093454;28;20339;-76
2022/09/20 01:09:52;;;;;;;7.07;2.25;;;;;;;16.22;46.65;99578.88;5076022;28;20510;-76
2022/09/20 01:12:20;;;;;;;9.07;2.22;;;;;;;16.19;46.85;99581.88;5076507;28;20040;-77
2022/09/20 01:14:49;;;;;;;6.28;2.30;;;;;;;16.18;46.60;99577.50;5092545;28;20043;-76
2022/09/20 01:17:18;;;;;;;8.02;2.40;;;;;;;16.17;46.78;99570.41;5076504;28;20047;-77
2022/09/20 01:19:57;;;;;;;9.50;2.15;;;;;;;16.15;47.15;99576.94;5074855;28;20445;-76
2022/09/20 01:23:05;;;;;;;4.38;2.38;;;;;;;16.11;46.99;99580.94;5058430;28;20138;-77
2022/09/20 01:25:40;;;;;;;11.07;3.08;;;;;;;16.03;47.64;99570.94;5092244;28;20051;-77
2022/09/20 01:28:06;;;;;;;10.55;4.82;;;;;;;15.95;47.98;99587.03;5075165;28;20048;-77
2022/09/20 01:31:07;;;;;;;21.23;5.97;;;;;;;15.97;47.87;99576.91;5075510;28;20093;-76
2022/09/20 01:33:49;;;;;;;26.13;7.30;;;;;;;15.95;47.68;99581.63;5074817;28;20040;-77
2022/09/20 01:36:23;;;;;;;18.33;6.90;;;;;;;15.91;47.88;99582.91;5091776;28;20048;-76
2022/09/20 01:38:52;;;;;;;17.35;6.57;;;;;;;15.92;47.78;99592.72;5075080;28;20043;-75
2022/09/20 01:41:53;;;;;;;13.02;6.13;;;;;;;15.90;47.97;99592.84;5058287;28;20089;-76
2022/09/20 01:44:56;;;;;;;14.40;5.78;;;;;;;15.89;47.55;99598.41;5058038;28;20047;-77
2022/09/20 01:47:43;;;;;;;16.38;6.53;;;;;;;15.86;47.61;99598.69;5074494;28;20047;-76
2022/09/20 01:50:08;;;;;;;18.23;7.20;;;;;;;15.88;47.50;99597.56;5074408;28;20051;-76
2022/09/20 01:52:47;;;;;;;21.70;9.75;;;;;;;15.88;47.91;99602.94;5092623;28;20040;-76
2022/09/20 01:55:37;;;;;;;25.80;12.23;;;;;;;15.89;47.88;99603.78;5074281;28;20052;-77
2022/09/20 01:58:18;;;;;;;30.70;13.20;;;;;;;15.89;47.88;99601.09;5075018;28;20211;-76
2022/09/20 02:01:06;;;;;;;35.30;14.63;;;;;;;15.90;47.17;99602.78;5091661;28;20113;-76
2022/09/20 02:04:10;;;;;;;24.40;8.38;;;;;;;15.91;47.28;99608.03;5091264;28;20071;-76
2022/09/20 02:07:07;;;;;;;17.33;7.18;;;;;;;15.91;47.31;99605.34;5074355;28;20142;-77
2022/09/20 02:09:53;;;;;;;14.65;6.25;;;;;;;15.90;47.18;99606.31;5091153;28;20495;-76
2022/09/20 02:12:37;;;;;;;14.13;6.78;;;;;;;15.88;47.43;99602.09;5074441;28;20138;-76
2022/09/20 02:16:00;;;;;;;15.57;7.47;;;;;;;15.95;47.35;99619.38;5091391;28;20078;-76
2022/09/20 02:19:00;;;;;;;20.45;7.80;;;;;;;15.88;47.50;99623.66;5072921;28;20131;-76
2022/09/20 02:21:38;;;;;;;11.65;4.78;;;;;;;15.88;47.39;99634.44;5073049;28;20423;-76
2022/09/20 02:24:28;;;;;;;7.88;3.72;;;;;;;15.90;47.42;99632.44;5091587;28;20056;-76
2022/09/20 02:27:18;;;;;;;4.93;2.70;;;;;;;15.89;47.47;99631.59;5090468;28;20063;-76
2022/09/20 02:29:55;;;;;;;5.43;2.80;;;;;;;15.93;47.13;99632.13;5073751;28;20067;-78
2022/09/20 02:32:24;;;;;;;7.97;2.47;;;;;;;15.97;47.05;99638.94;5077318;28;20048;-76
2022/09/20 02:35:04;;;;;;;7.63;2.42;;;;;;;15.98;47.18;99629.81;5094716;28;20040;-76
2022/09/20 02:37:54;;;;;;;7.20;3.10;;;;;;;16.03;47.31;99641.88;5077692;28;20139;-78
2022/09/20 02:40:32;;;;;;;4.95;2.80;;;;;;;16.03;47.08;99636.47;5094261;28;20054;-77
2022/09/20 02:43:07;;;;;;;7.22;2.72;;;;;;;16.09;47.23;99629.63;5094183;28;20046;-76
2022/09/20 02:45:48;;;;;;;3.95;2.80;;;;;;;16.19;46.91;99641.22;5095885;28;20071;-77
2022/09/20 02:48:22;;;;;;;4.63;2.78;;;;;;;16.24;46.10;99641.59;5094621;28;20054;-79
2022/09/20 02:51:15;;;;;;;10.25;2.47;;;;;;;16.32;46.18;99642.69;5061326;28;20055;-84
2022/09/20 02:53:57;;;;;;;10.60;2.33;;;;;;;16.41;45.72;99653.44;5091073;28;20052;-76
2022/09/20 02:56:41;;;;;;;6.35;2.50;;;;;;;16.54;45.80;99653.03;5093823;28;20040;-78
2022/09/20 02:59:22;;;;;;;12.15;2.97;;;;;;;16.66;46.00;99657.22;5095392;28;20546;-76
2022/09/20 03:02:26;;;;;;;9.77;3.10;;;;;;;16.81;45.46;99648.59;5094083;28;20055;-77
2022/09/20 03:05:01;;;;;;;10.70;3.30;;;;;;;16.94;44.91;99657.16;5090447;28;20056;-76
2022/09/20 03:07:34;;;;;;;7.63;3.03;;;;;;;16.96;43.93;99658.72;5076900;28;20048;-78
2022/09/20 03:10:09;;;;;;;11.88;4.18;;;;;;;17.09;43.53;99658.28;5077067;28;20048;-77
2022/09/20 03:13:14;;;;;;;16.65;3.22;;;;;;;17.19;43.63;99659.06;5094060;28;20043;-78
2022/09/20 03:16:11;;;;;;;8.95;3.38;;;;;;;17.33;43.03;99659.47;5095709;28;20051;-77
2022/09/20 03:18:55;;;;;;;12.10;3.70;;;;;;;17.35;42.60;99657.47;5092002;28;20060;-76
2022/09/20 03:21:43;;;;;;;13.00;3.72;;;;;;;17.38;42.57;99657.16;5060335;28;20450;-76
2022/09/20 03:24:40;;;;;;;12.25;3.78;;;;;;;17.41;42.70;99646.88;5059814;28;20040;-79
2022/09/20 03:27:14;;;;;;;8.45;3.30;;;;;;;17.50;42.11;99658.59;5092033;28;20051;-77
2022/09/20 03:29:39;;;;;;;13.85;3.80;;;;;;;17.50;42.12;99661.28;5070914;28;20052;-78
2022/09/20 03:32:24;;;;;;;9.57;3.45;;;;;;;17.54;41.96;99659.97;5093018;28;20450;-82
2022/09/20 03:35:06;;;;;;;18.15;3.97;;;;;;;17.62;42.34;99665.41;5094601;28;20081;-77
2022/09/20 03:38:00;;;;;;;13.40;3.72;;;;;;;17.66;41.85;99660.53;5093509;28;20044;-77
2022/09/20 03:40:48;;;;;;;10.95;3.60;;;;;;;17.61;42.09;99660.19;5076788;28;20040;-84
2022/09/20 03:43:51;;;;;;;8.00;3.20;;;;;;;17.58;42.25;99669.44;5075673;28;20075;-78
2022/09/20 03:46:25;;;;;;;9.25;3.45;;;;;;;17.59;42.35;99667.59;5092827;28;20046;-78
2022/09/20 03:49:46;;;;;;;11.45;2.78;;;;;;;17.73;41.96;99667.84;5059903;28;20541;-77
2022/09/20 03:52:30;;;;;;;10.57;4.55;;;;;;;17.86;41.79;99666.56;5075011;28;20051;-80
2022/09/20 03:55:14;;;;;;;8.50;3.20;;;;;;;17.81;41.54;99664.34;5087501;28;20048;-79
2022/09/20 03:58:13;;;;;;;18.45;4.40;;;;;;;17.84;41.71;99668.59;5087847;28;20043;-76
2022/09/20 04:00:58;;;;;;;11.73;5.13;;;;;;;18.07;41.78;99677.00;5081200;28;20044;-76
2022/09/20 04:03:30;;;;;;;11.85;5.65;;;;;;;18.22;41.31;99671.81;5055869;28;20078;-78
2022/09/20 04:06:14;;;;;;;12.98;7.45;;;;;;;18.32;41.11;99677.94;5040214;28;20052;-79
2022/09/20 04:08:52;;;;;;;16.10;7.53;;;;;;;18.48;40.86;99683.41;5073830;28;20070;-79
2022/09/20 04:11:39;;;;;;;21.30;7.60;;;;;;;18.57;40.58;99679.69;5047600;28;20048;-78
2022/09/20 04:14:46;;;;;;;17.98;7.13;;;;;;;18.71;40.24;99678.22;5072500;28;20544;-78
2022/09/20 04:17:42;;;;;;;19.42;7.80;;;;;;;18.70;40.25;99692.75;5071874;28;20503;-78
2022/09/20 04:20:30;;;;;;;20.55;7.13;;;;;;;18.78;39.90;99679.25;5073910;28;20036;-78
2022/09/20 04:23:01;;;;;;;15.23;8.07;;;;;;;18.73;39.74;99692.47;5072013;28;20048;-77
2022/09/20 04:25:39;;;;;;;20.13;8.15;;;;;;;18.79;39.81;99690.94;5055380;28;20084;-78
2022/09/20 04:28:20;;;;;;;16.88;7.38;;;;;;;18.86;39.57;99692.81;5072557;28;20109;-77
2022/09/20 04:30:48;;;;;;;17.30;6.60;;;;;;;18.83;38.98;99687.72;5055629;28;20078;-78
2022/09/20 04:33:36;;;;;;;18.30;6.33;;;;;;;18.82;38.97;99688.72;5055604;28;20047;-79
2022/09/20 04:36:28;;;;;;;26.30;5.97;;;;;;;18.96;38.56;99681.81;5055359;28;20098;-79
2022/09/20 04:39:00;;;;;;;16.10;5.15;;;;;;;19.04;38.77;99684.53;5054775;28;20052;-79
2022/09/20 04:41:50;;;;;;;14.43;4.65;;;;;;;19.15;38.46;99675.22;5071825;28;20040;-78
2022/09/20 04:44:40;;;;;;;8.50;4.22;;;;;;;19.37;38.04;99689.94;5071958;28;20079;-78
2022/09/20 04:47:37;;;;;;;16.67;4.68;;;;;;;19.56;37.57;99697.72;5038649;28;20135;-80
2022/09/20 04:50:43;;;;;;;11.20;5.15;;;;;;;19.70;37.34;99704.31;5055297;28;20040;-79
2022/09/20 04:53:36;;;;;;;11.45;5.25;;;;;;;19.81;36.89;99703.94;5071646;28;20458;-79
2022/09/20 04:56:37;;;;;;;12.55;5.47;;;;;;;19.83;35.96;99729.03;5071153;28;20074;-76
2022/09/20 04:59:32;;;;;;;14.82;4.78;;;;;;;19.78;36.01;99727.84;5055270;28;20051;-80
2022/09/20 05:02:29;;;;;;;11.60;3.90;;;;;;;19.67;36.13;99730.94;5038357;28;20434;-78
2022/09/20 05:05:14;;;;;;;7.03;3.00;;;;;;;19.84;35.86;99729.88;5071495;28;20051;-80
2022/09/20 05:07:54;;;;;;;9.10;3.20;;;;;;;19.90;35.81;99707.50;5055419;28;20380;-77
2022/09/20 05:10:29;;;;;;;12.27;3.08;;;;;;;20.05;35.92;99721.19;5055091;28;20074;-79
2022/09/20 05:13:16;;;;;;;12.93;3.42;;;;;;;20.08;35.20;99702.69;5072835;28;20044;-79
2022/09/20 05:16:00;;;;;;;8.40;3.55;;;;;;;20.13;35.91;99703.00;5071928;28;20048;-79
2022/09/20 05:18:42;;;;;;;9.75;3.20;;;;;;;20.33;35.80;99697.16;5038026;28;20055;-79
2022/09/20 05:21:19;;;;;;;13.18;3.17;;;;;;;20.54;35.07;99716.44;5054638;28;20381;-74
2022/09/20 05:23:50;;;;;;;8.68;3.47;;;;;;;20.71;35.39;99727.19;5072589;28;20053;-77
2022/09/20 05:26:33;;;;;;;14.00;3.70;;;;;;;20.92;34.57;99710.25;5071588;28;20048;-75
2022/09/20 05:29:23;;;;;;;10.80;3.30;;;;;;;20.91;34.33;99714.84;5054375;28;20044;-81
2022/09/20 05:32:03;;;;;;;10.98;4.18;;;;;;;21.09;34.24;99715.38;5054697;28;20048;-77
2022/09/20 05:34:33;;;;;;;13.27;3.08;;;;;;;21.21;34.68;99706.78;5054936;28;20072;-79
2022/09/20 05:37:08;;;;;;;8.05;3.35;;;;;;;21.41;34.10;99708.03;5071163;28;20129;-76
2022/09/20 05:39:44;;;;;;;7.05;2.92;;;;;;;21.57;34.00;99712.47;5072645;28;20068;-76
2022/09/20 05:42:19;;;;;;;7.65;3.92;;;;;;;21.70;33.19;99711.81;5054584;28;20060;-77
2022/09/20 05:44:58;;;;;;;10.65;3.60;;;;;;;21.78;33.44;99712.59;5054292;28;20052;-77
2022/09/20 05:47:33;;;;;;;12.77;4.97;;;;;;;21.93;33.12;99709.88;5083659;28;20135;-76
2022/09/20 05:50:33;;;;;;;9.73;4.32;;;;;;;22.10;32.66;99698.78;5072450;28;20060;-76
2022/09/20 05:53:44;;;;;;;13.10;5.93;;;;;;;22.27;32.31;99703.91;5054417;28;20098;-77
2022/09/20 05:56:31;;;;;;;17.35;4.95;;;;;;;22.45;32.42;99706.19;5071383;28;20491;-78
2022/09/20 05:59:33;;;;;;;16.42;4.97;;;;;;;22.63;32.55;99707.66;5072311;28;20487;-85
2022/09/20 06:02:14;;;;;;;18.98;4.43;;;;;;;22.74;31.10;99704.44;5054655;28;20041;-79
2022/09/20 06:04:59;;;;;;;17.75;4.80;;;;;;;22.92;32.19;99704.03;5072183;28;20044;-78
2022/09/20 06:08:02;;;;;;;10.20;5.00;;;;;;;23.19;30.52;99700.53;5041400;28;20071;-77
2022/09/20 06:10:42;;;;;;;16.00;4.60;;;;;;;23.37;29.04;99688.31;5074668;28;20499;-76
2022/09/20 06:13:19;;;;;;;9.13;4.00;;;;;;;23.55;28.76;99693.28;5058142;28;20094;-78
2022/09/20 06:15:58;;;;;;;11.80;4.15;;;;;;;23.73;28.49;99688.19;5078264;28;20083;-76
2022/09/20 06:18:53;;;;;;;14.38;3.97;;;;;;;23.84;27.29;99692.25;5073708;28;20131;-75
2022/09/20 06:21:49;;;;;;;9.85;3.10;;;;;;;23.95;26.95;99695.25;5074331;28;20368;-78
2022/09/20 06:24:33;;;;;;;14.02;3.83;;;;;;;24.04;27.03;99700.59;5073892;28;20062;-75
2022/09/20 06:27:03;;;;;;;13.05;3.63;;;;;;;23.96;25.78;99682.47;5057301;28;20056;-76
2022/09/20 06:29:36;;;;;;;6.45;3.33;;;;;;;24.01;25.19;99696.34;5057241;28;20048;-76
2022/09/20 06:32:02;;;;;;;9.68;3.03;;;;;;;24.19;26.27;99698.56;5056606;28;20043;-76
2022/09/20 06:34:28;;;;;;;8.10;2.53;;;;;;;24.23;25.59;99697.09;5073767;28;20037;-76
2022/09/20 06:43:13;;;;;;;6.93;2.65;;;;;;;24.57;24.83;99698.13;5083442;28;20090;-78
2022/09/20 06:45:40;;;;;;;7.28;2.50;;;;;;;24.70;25.00;99679.84;5076369;28;20040;-79
2022/09/20 06:48:08;;;;;;;9.05;2.70;;;;;;;24.90;24.29;99690.84;5092730;28;20115;-77
2022/09/20 06:50:35;;;;;;;9.20;3.08;;;;;;;24.89;23.40;99697.34;5076607;28;20040;-77
2022/09/20 06:53:01;;;;;;;10.75;2.83;;;;;;;24.88;23.60;99682.00;5093300;28;20039;-77
2022/09/20 06:55:36;;;;;;;7.10;2.83;;;;;;;24.94;23.60;99683.09;5093017;28;20051;-77
2022/09/20 06:58:02;;;;;;;7.63;2.90;;;;;;;24.84;23.44;99683.47;5093367;28;20466;-77
2022/09/20 07:00:29;;;;;;;6.57;3.55;;;;;;;24.99;24.31;99671.50;5091563;28;20131;-77
2022/09/20 07:02:55;;;;;;;9.38;3.70;;;;;;;25.21;24.18;99678.50;5055971;28;20281;-79
2022/09/20 07:05:21;;;;;;;11.18;3.88;;;;;;;25.20;23.50;99679.56;5056630;28;20063;-78
2022/09/20 07:07:47;;;;;;;12.70;2.72;;;;;;;25.32;23.55;99680.63;5074346;28;20044;-76
2022/09/20 07:10:14;;;;;;;9.63;3.10;;;;;;;25.42;22.53;99670.06;5056704;28;20047;-76
2022/09/20 07:12:40;;;;;;;5.90;2.47;;;;;;;25.34;22.32;99675.75;5073041;28;20054;-76
2022/09/20 07:15:07;;;;;;;6.97;2.38;;;;;;;25.37;22.48;99678.09;5056619;28;20072;-77
2022/09/20 07:17:33;;;;;;;7.38;2.30;;;;;;;25.51;22.84;99678.94;5072295;28;20044;-76
2022/09/20 07:19:59;;;;;;;9.38;2.50;;;;;;;25.64;22.24;99667.13;5056536;28;20102;-77
2022/09/20 07:22:26;;;;;;;10.88;2.72;;;;;;;25.70;22.39;99659.97;5073895;28;20392;-76
2022/09/20 07:24:52;;;;;;;11.88;2.63;;;;;;;25.69;22.44;99659.13;5072913;28;20048;-75
2022/09/20 07:27:19;;;;;;;5.32;2.60;;;;;;;25.82;22.56;99656.38;5056185;28;20113;-76
2022/09/20 07:29:45;;;;;;;7.95;2.90;;;;;;;25.92;22.63;99651.31;5056298;28;20045;-78
2022/09/20 07:32:11;;;;;;;6.90;3.47;;;;;;;26.06;22.34;99651.25;5059499;28;20044;-76
2022/09/20 07:34:37;;;;;;;15.88;4.22;;;;;;;26.16;22.39;99646.16;5080701;28;20047;-77
2022/09/20 07:37:03;;;;;;;9.40;4.50;;;;;;;26.35;22.41;99649.88;5072648;28;20075;-76
2022/09/20 07:39:28;;;;;;;10.00;4.80;;;;;;;26.48;22.34;99649.84;5055806;28;20083;-76
2022/09/20 07:41:55;;;;;;;10.95;5.65;;;;;;;26.64;22.51;99643.00;5072739;28;20417;-77
2022/09/20 07:44:23;;;;;;;10.13;5.78;;;;;;;26.85;22.21;99641.81;5072657;28;20047;-77
2022/09/20 07:46:58;;;;;;;9.18;4.15;;;;;;;26.84;22.04;99638.22;5071950;28;20044;-77
2022/09/20 07:49:26;;;;;;;17.52;3.30;;;;;;;26.98;21.58;99633.50;5073807;28;20041;-77
2022/09/20 07:51:53;;;;;;;13.85;3.20;;;;;;;27.03;21.59;99630.06;5073103;28;20406;-75
2022/09/20 07:54:19;;;;;;;15.82;3.80;;;;;;;26.97;21.48;99630.97;5076046;28;20529;-77
2022/09/20 07:56:46;;;;;;;11.25;3.63;;;;;;;27.15;21.53;99631.06;5055977;28;20036;-76
2022/09/20 07:59:12;;;;;;;8.52;4.13;;;;;;;27.28;21.79;99628.22;5069776;28;20040;-74
2022/09/20 08:01:39;;;;;;;11.40;3.67;;;;;;;27.36;21.65;99627.09;5092768;28;20040;-75
2022/09/20 08:04:07;;;;;;;8.25;3.30;;;;;;;27.55;21.27;99617.81;5075096;28;20048;-75
2022/09/20 08:06:40;;;;;;;9.48;3.63;;;;;;;27.77;21.40;99632.00;5055037;28;20038;-76
2022/09/20 08:09:07;;;;;;;7.80;3.15;;;;;;;27.87;20.83;99633.38;5073674;28;20138;-76
2022/09/20 08:11:34;;;;;;;12.43;4.43;;;;;;;28.00;21.12;99622.22;5067313;28;20044;-75
2022/09/20 08:14:01;;;;;;;6.20;3.50;;;;;;;28.15;21.15;99622.69;5085553;28;20044;-75
2022/09/20 08:16:29;;;;;;;11.23;3.70;;;;;;;28.27;21.33;99609.81;5073903;28;20525;-75
2022/09/20 08:19:00;;;;;;;7.95;4.13;;;;;;;28.38;21.18;99612.91;5038241;28;20510;-75
2022/09/20 08:21:30;;;;;;;15.27;5.03;;;;;;;28.51;21.37;99607.19;5072905;28;20048;-78
2022/09/20 08:23:57;;;;;;;8.38;4.00;;;;;;;28.78;20.01;99608.50;5071945;28;20527;-76
2022/09/20 08:26:24;;;;;;;9.80;3.95;;;;;;;28.85;20.69;99615.81;5073095;28;20040;-75
2022/09/20 08:28:53;;;;;;;8.25;4.13;;;;;;;28.89;20.06;99600.53;5054955;28;20462;-76
2022/09/20 08:31:21;;;;;;;10.20;3.70;;;;;;;28.90;19.92;99607.69;5055281;28;20135;-75
2022/09/20 08:33:49;;;;;;;9.45;3.10;;;;;;;28.89;20.24;99600.53;5055399;28;20040;-75
2022/09/20 08:36:18;;;;;;;12.53;3.40;;;;;;;29.19;19.41;99600.47;5071829;28;20094;-76
2022/09/20 08:38:44;;;;;;;7.40;3.45;;;;;;;29.35;19.54;99598.94;5072675;28;20282;-76
2022/09/20 08:41:14;;;;;;;15.93;4.07;;;;;;;29.57;19.38;99607.44;5071492;28;20068;-75
2022/09/20 08:43:50;;;;;;;6.03;3.88;;;;;;;29.76;18.90;99581.44;5055552;28;20097;-75
2022/09/20 08:46:21;;;;;;;12.38;3.78;;;;;;;30.05;18.84;99596.09;5057748;28;20047;-76
2022/09/20 08:48:47;;;;;;;9.02;3.90;;;;;;;30.06;18.38;99589.53;5093098;28;20051;-75
2022/09/20 08:51:15;;;;;;;8.48;3.80;;;;;;;30.27;18.12;99585.28;5074955;28;20510;-75
2022/09/20 08:53:47;;;;;;;10.55;3.28;;;;;;;30.38;17.73;99598.19;5074839;28;20410;-76
2022/09/20 08:56:13;;;;;;;15.68;4.15;;;;;;;30.33;17.61;99583.47;5074849;28;20040;-76
2022/09/20 08:58:39;;;;;;;6.97;3.88;;;;;;;30.37;17.40;99579.97;5058007;28;20044;-75
2022/09/20 09:01:06;;;;;;;5.68;3.53;;;;;;;30.65;17.47;99586.53;5074598;28;20079;-75
2022/09/20 09:03:33;;;;;;;7.93;3.42;;;;;;;30.88;17.06;99580.06;5057792;28;20044;-76
2022/09/20 09:06:00;;;;;;;7.88;3.92;;;;;;;30.95;16.93;99583.50;5091955;28;20097;-74
2022/09/20 09:08:36;;;;;;;5.90;3.47;;;;;;;31.25;16.10;99579.56;5091408;28;20479;-75
2022/09/20 09:11:08;;;;;;;9.40;3.60;;;;;;;31.32;16.66;99580.25;5074279;28;20052;-74
2022/09/20 09:13:40;;;;;;;7.82;3.00;;;;;;;31.47;16.28;99577.72;5091505;28;20139;-75
2022/09/20 09:16:13;;;;;;;13.23;3.05;;;;;;;31.53;16.18;99576.72;5091893;28;20044;-76
2022/09/20 09:18:43;;;;;;;6.10;2.40;;;;;;;31.55;15.90;99574.53;5086061;28;20093;-76
2022/09/20 09:21:23;;;;;;;15.45;2.80;;;;;;;31.78;16.21;99572.63;5072860;28;20126;-75
2022/09/20 09:23:56;;;;;;;9.32;2.65;;;;;;;31.81;15.46;99564.66;5071290;28;20072;-75
2022/09/20 09:26:24;;;;;;;15.02;3.33;;;;;;;32.03;15.44;99580.44;5071362;28;20084;-75
2022/09/20 09:29:22;;;;;;;9.30;2.75;;;;;;;31.89;15.26;99552.34;5054539;28;20044;-75
2022/09/20 09:31:50;;;;;;;7.10;2.60;;;;;;;31.70;15.10;99571.13;5054669;28;20075;-75
2022/09/20 09:34:32;;;;;;;9.57;2.88;;;;;;;31.76;14.99;99566.53;5054660;28;20076;-75
2022/09/20 09:36:58;;;;;;;7.32;2.92;;;;;;;31.97;15.51;99557.44;5071181;28;20194;-75
2022/09/20 09:39:28;;;;;;;5.18;2.67;;;;;;;32.11;14.40;99563.41;5072467;28;20045;-75
2022/09/20 09:41:55;;;;;;;8.88;2.60;;;;;;;32.06;14.68;99557.81;5040829;28;20045;-75
2022/09/20 09:44:27;;;;;;;10.05;2.60;;;;;;;31.97;15.05;99559.34;5058269;28;20115;-75
2022/09/20 09:46:55;;;;;;;5.75;2.58;;;;;;;32.11;15.07;99557.88;5058258;28;20086;-75
2022/09/20 09:49:22;;;;;;;8.40;3.08;;;;;;;32.37;14.99;99553.47;5087426;28;20075;-75
2022/09/20 09:51:54;;;;;;;12.20;3.40;;;;;;;32.56;14.67;99554.78;5058610;28;20465;-75
2022/09/20 09:54:24;;;;;;;10.48;3.17;;;;;;;32.76;14.14;99556.06;5057809;28;20052;-75
2022/09/20 09:57:11;;;;;;;7.38;2.72;;;;;;;32.55;14.44;99547.59;5058738;28;20055;-76
2022/09/20 10:00:00;;;;;;;7.07;2.30;;;;;;;32.54;13.95;99542.31;5076019;28;20091;-75
2022/09/20 10:02:57;;;;;;;9.05;2.20;;;;;;;32.56;13.21;99552.00;5074431;28;20068;-76
2022/09/20 10:05:32;;;;;;;4.78;2.35;;;;;;;32.88;13.31;99553.97;5074783;28;20165;-75
2022/09/20 10:08:26;;;;;;;3.10;1.95;;;;;;;33.13;13.33;99548.66;5041676;28;20048;-75
2022/09/20 10:11:11;;;;;;;7.35;1.80;;;;;;;33.43;12.14;99544.41;5074704;28;20052;-75
2022/09/20 10:14:02;;;;;;;9.43;2.58;;;;;;;33.41;12.90;99545.81;5074274;28;20045;-76
2022/09/20 10:17:07;;;;;;;4.75;1.80;;;;;;;33.65;12.59;99541.53;5074226;28;20078;-75
2022/09/20 10:19:45;;;;;;;5.10;1.83;;;;;;;33.76;12.83;99547.97;5086921;28;20489;-75
2022/09/20 10:22:45;;;;;;;2.53;1.50;;;;;;;33.97;12.85;99541.41;5074842;28;20043;-75
2022/09/20 10:25:35;;;;;;;6.72;1.80;;;;;;;34.24;12.82;99537.63;5041086;28;20052;-75
2022/09/20 10:28:07;;;;;;;4.10;2.15;;;;;;;34.49;13.19;99531.25;5074430;28;20047;-76
2022/09/20 10:31:12;;;;;;;7.05;2.05;;;;;;;34.69;11.96;99530.50;5058036;28;20045;-76
2022/09/20 10:34:19;;;;;;;7.53;2.17;;;;;;;34.80;12.65;99533.00;5075084;28;20060;-76
2022/09/20 10:36:56;;;;;;;6.38;2.00;;;;;;;34.78;11.95;99531.59;5056480;28;20055;-75
2022/09/20 10:39:37;;;;;;;5.93;1.95;;;;;;;34.49;12.15;99531.25;5056825;28;20048;-75
2022/09/20 10:45:27;;;;;;;13.07;3.17;;;;;;;34.55;11.82;99525.47;5057343;28;20493;-76
2022/09/20 10:48:31;;;;;;;9.63;1.85;;;;;;;35.13;11.62;99533.59;5057552;28;20045;-74
2022/09/20 10:50:58;;;;;;;8.00;1.60;;;;;;;35.49;10.89;99528.78;5072054;28;20043;-76
2022/09/20 10:53:29;;;;;;;6.82;2.03;;;;;;;35.65;10.64;99525.97;5073569;28;20086;-76
2022/09/20 10:56:32;;;;;;;5.63;1.70;;;;;;;35.82;10.21;99532.03;5041735;28;20056;-75
2022/09/20 10:59:06;;;;;;;2.45;1.52;;;;;;;36.05;10.42;99526.94;5084455;28;20525;-76
2022/09/20 11:01:36;;;;;;;12.02;2.05;;;;;;;35.96;10.66;99524.72;5092267;28;20043;-77
2022/09/20 11:04:05;;;;;;;5.40;1.98;;;;;;;35.91;10.62;99518.34;5050517;28;20640;-77
2022/09/20 11:06:45;;;;;;;6.57;2.00;;;;;;;36.24;10.38;99528.75;5075356;28;20047;-75
2022/09/20 11:09:20;;;;;;;3.33;1.30;;;;;;;36.38;10.14;99526.19;5075264;28;20048;-74
2022/09/20 11:11:53;;;;;;;6.78;1.50;;;;;;;36.58;10.48;99511.31;5050064;28;20040;-76
2022/09/20 11:14:40;;;;;;;6.35;1.88;;;;;;;36.85;9.94;99519.16;5073231;28;20146;-75
2022/09/20 11:17:14;;;;;;;4.13;1.63;;;;;;;37.09;10.29;99518.44;5074303;28;20032;-74
2022/09/20 11:19:59;;;;;;;3.50;1.52;;;;;;;37.07;9.86;99515.09;5071535;28;20059;-76
2022/09/20 11:22:43;;;;;;;5.13;1.80;;;;;;;36.99;10.04;99508.19;5067026;28;20415;-74
2022/09/20 11:25:29;;;;;;;5.20;2.00;;;;;;;37.08;9.55;99516.75;5065910;28;20133;-75
2022/09/20 11:28:10;;;;;;;3.67;1.73;;;;;;;37.50;9.39;99513.28;5072279;28;20490;-77
2022/09/20 11:30:53;;;;;;;3.72;1.55;;;;;;;36.72;10.10;99508.69;5069264;28;20097;-76
2022/09/20 11:33:28;;;;;;;4.63;1.60;;;;;;;36.15;10.69;99504.63;5090629;28;20085;-76
2022/09/20 11:36:00;;;;;;;6.68;1.40;;;;;;;36.08;9.94;99512.47;5047047;28;20414;-78
2022/09/20 11:38:58;;;;;;;4.75;1.58;;;;;;;35.47;10.16;99511.53;5074464;28;20047;-76
2022/09/20 11:41:29;;;;;;;8.32;1.58;;;;;;;34.57;10.70;99514.13;5090126;28;20091;-77
2022/09/20 11:44:00;;;;;;;5.22;1.77;;;;;;;33.93;11.49;99520.88;5069129;28;20200;-76
2022/09/20 11:46:44;;;;;;;6.80;1.77;;;;;;;33.51;11.55;99507.94;5073492;28;20072;-75
2022/09/20 11:49:26;;;;;;;7.50;1.52;;;;;;;33.11;11.93;99506.56;5072480;28;20032;-77
2022/09/20 11:52:17;;;;;;;8.13;1.70;;;;;;;32.86;12.09;99500.78;5054913;28;20040;-76
2022/09/20 11:54:57;;;;;;;3.90;1.88;;;;;;;32.91;12.17;99503.59;5071580;28;20056;-76
2022/09/20 11:57:24;;;;;;;5.13;1.73;;;;;;;33.43;12.18;99500.06;5068614;28;20321;-78
2022/09/20 12:00:03;;;;;;;6.15;2.33;;;;;;;33.91;12.06;99497.28;5091318;28;20094;-79
2022/09/20 12:02:50;;;;;;;5.18;2.55;;;;;;;34.51;11.70;99502.16;5085709;28;20082;-76
2022/09/20 12:05:32;;;;;;;7.88;2.40;;;;;;;35.06;11.35;99505.25;5042669;28;20110;-77
2022/09/20 12:08:02;;;;;;;4.45;2.28;;;;;;;35.21;11.40;99496.06;5087050;28;20495;-76
2022/09/20 12:10:35;;;;;;;8.27;2.03;;;;;;;35.47;11.66;99500.44;5054918;28;20040;-75
2022/09/20 12:13:05;;;;;;;10.35;2.38;;;;;;;35.67;10.92;99488.41;5048071;28;20044;-75
2022/09/20 12:15:39;;;;;;;5.15;1.92;;;;;;;35.79;10.94;99504.78;5088987;28;20519;-76
2022/09/20 12:18:33;;;;;;;9.10;2.20;;;;;;;36.25;10.67;99493.41;5088841;28;20101;-75
2022/09/20 12:21:14;;;;;;;7.20;2.10;;;;;;;36.49;10.86;99492.75;5055200;28;20135;-74
2022/09/20 12:23:55;;;;;;;3.80;1.92;;;;;;;36.68;10.80;99497.31;5071955;28;20049;-74
2022/09/20 12:26:21;;;;;;;12.52;2.28;;;;;;;36.41;10.70;99485.78;5073618;28;20353;-74
2022/09/20 12:29:09;;;;;;;8.18;2.00;;;;;;;36.24;10.79;99487.00;5074533;28;20066;-76